Thunderstorms From: 15-12-2017 06:00 Until: 16-12-2017 06:00 warning for: Thunderstorms Level: Yellow info button

Although rather usual in this region, locally or potentially dangerous phenomena are expected. (such as local winds, summer thunderstorms, rising streams or high waves) Be aware and pay attention to the latest weather updates, especially if you carry out activities exposed to weather or close to a stream or shoreline. 


Meteo18 Weather Cam more information Meteo18 Weather Cam


warning for Thunderstorms more information blitzortung!


Rain radar more information rain snow radar


Visit our other weather sites:

Template documentation
and downloads

And another site



Weather Underground History page Text

Daily Summary for October 11, 2017 Units:  English    Metric   Both
« Previous Day
Next Day »
Daily Weekly Monthly Yearly Custom
  High: Low: Average:
Temperature: 70.5 °F 47.1 °F 56.7 °F
Dew Point: 56.5 °F 46.4 °F 52.3 °F
Humidity: 97 % 58 % 87 %
Wind Speed: 12 mph 0 mph 0.7 mph
Wind Gust: 14 mph - -
Wind:- - SW
Pressure: 30.2 in 30.1 in -
Precipitation: 0.01 in    
Historical Graphs
 
 
Tabular Data for October 11, 2017
Time Temperature Dew Point Pressure Wind Wind Speed Wind Gust Humidity Rainfall Rate (Hourly)
00:02 56.1 °F 53.8 °F 30.2 in Calm     92 % 0 in
00:12 55.9 °F 54 °F 30.2 in Calm     93 % 0 in
00:17 55.8 °F 53.8 °F 30.2 in Calm     93 % 0 in
00:22 55.8 °F 53.8 °F 30.2 in Calm     93 % 0 in
00:32 55.8 °F 53.8 °F 30.2 in Calm     93 % 0 in
00:42 55.6 °F 53.6 °F 30.2 in Calm     93 % 0 in
00:47 55.6 °F 53.6 °F 30.2 in Calm     93 % 0 in
00:52 55.4 °F 53.8 °F 30.2 in Calm     94 % 0 in
00:57 55.2 °F 53.6 °F 30.2 in Calm     94 % 0 in
01:02 55.2 °F 53.6 °F 30.2 in Calm     94 % 0 in
01:07 55.2 °F 53.6 °F 30.2 in Calm     94 % 0 in
01:12 55.2 °F 53.6 °F 30.2 in Calm     94 % 0 in
01:17 55.2 °F 53.6 °F 30.2 in Calm     94 % 0 in
01:22 55 °F 53.4 °F 30.2 in Calm     94 % 0 in
01:27 55 °F 53.4 °F 30.2 in Calm     94 % 0 in
01:32 55 °F 53.4 °F 30.2 in Calm     94 % 0 in
01:42 54.9 °F 53.2 °F 30.2 in Calm     94 % 0 in
01:47 54.7 °F 53.1 °F 30.2 in Calm     94 % 0 in
01:52 54.5 °F 53.1 °F 30.2 in Calm     95 % 0 in
01:57 54.1 °F 52.7 °F 30.2 in Calm     95 % 0 in
02:02 54 °F 52.5 °F 30.2 in Calm     95 % 0 in
02:12 54 °F 52.5 °F 30.2 in Calm     95 % 0 in
02:17 54 °F 52.9 °F 30.2 in Calm     96 % 0 in
02:22 53.6 °F 52.2 °F 30.2 in Calm     95 % 0 in
02:27 53.4 °F 52.3 °F 30.2 in Calm     96 % 0 in
02:32 53.4 °F 52.3 °F 30.2 in Calm     96 % 0 in
02:37 53.2 °F 52.2 °F 30.2 in Calm     96 % 0 in
02:42 52.9 °F 51.4 °F 30.2 in Calm     95 % 0 in
02:47 52.7 °F 51.6 °F 30.2 in Calm   1 mph 96 % 0 in
02:52 52.9 °F 51.8 °F 30.2 in Calm   1 mph 96 % 0 in
02:57 53.1 °F 52 °F 30.2 in Calm   1 mph 96 % 0 in
03:02 52.9 °F 51.8 °F 30.2 in Calm     96 % 0 in
03:07 52.5 °F 51.4 °F 30.2 in Calm     96 % 0 in
03:12 52.2 °F 51.1 °F 30.2 in Calm     96 % 0 in
03:17 52 °F 50.9 °F 30.2 in Calm     96 % 0 in
03:22 51.8 °F 50.7 °F 30.2 in Calm     96 % 0 in
03:27 51.6 °F 50.5 °F 30.2 in Calm     96 % 0 in
03:32 51.6 °F 50.7 °F 30.2 in Calm     97 % 0 in
03:37 52 °F 51.1 °F 30.2 in Calm     97 % 0 in
03:42 51.8 °F 50.9 °F 30.2 in Calm     97 % 0 in
03:47 51.4 °F 50.4 °F 30.2 in Calm     96 % 0 in
03:52 51.4 °F 50.5 °F 30.2 in Calm     97 % 0 in
03:57 51.6 °F 50.7 °F 30.2 in Calm     97 % 0 in
04:02 51.4 °F 50.4 °F 30.2 in Calm     96 % 0 in
04:07 51.3 °F 50.2 °F 30.2 in Calm     96 % 0 in
04:12 51.1 °F 50 °F 30.2 in Calm     96 % 0 in
04:17 51.1 °F 50 °F 30.2 in Calm     96 % 0 in
04:22 50.7 °F 49.6 °F 30.2 in Calm     96 % 0 in
04:32 50.5 °F 49.5 °F 30.2 in Calm     96 % 0 in
04:37 50.5 °F 49.6 °F 30.2 in Calm     97 % 0 in
04:42 50.5 °F 49.6 °F 30.2 in Calm   1 mph 97 % 0 in
04:52 50.2 °F 49.1 °F 30.2 in Calm   1 mph 96 % 0 in
04:57 50.2 °F 49.3 °F 30.2 in Calm   1 mph 97 % 0 in
05:02 49.8 °F 48.7 °F 30.2 in Calm   1 mph 96 % 0 in
05:07 49.8 °F 48.9 °F 30.2 in Calm   1 mph 97 % 0 in
05:12 50.2 °F 49.3 °F 30.2 in Calm   1 mph 97 % 0 in
05:22 49.8 °F 48.9 °F 30.2 in Calm   1 mph 97 % 0 in
05:32 49.3 °F 48.2 °F 30.2 in Calm     96 % 0 in
05:42 48.9 °F 48 °F 30.2 in Calm     97 % 0 in
05:47 48.7 °F 47.8 °F 30.2 in Calm     97 % 0 in
05:52 48.6 °F 47.7 °F 30.2 in Calm     97 % 0 in
05:57 48.4 °F 47.5 °F 30.2 in Calm   1 mph 97 % 0 in
06:02 48.4 °F 47.5 °F 30.2 in Calm   1 mph 97 % 0 in
06:12 48.4 °F 47.5 °F 30.2 in Calm   1 mph 97 % 0 in
06:17 48.4 °F 47.5 °F 30.2 in Calm     97 % 0 in
06:22 48.4 °F 47.5 °F 30.2 in Calm     97 % 0 in
06:32 48.4 °F 47.5 °F 30.2 in Calm     97 % 0 in
06:42 48.2 °F 47.3 °F 30.2 in Calm     97 % 0 in
06:47 48 °F 47.1 °F 30.2 in Calm     97 % 0 in
06:52 47.8 °F 46.9 °F 30.2 in Calm     97 % 0 in
07:12 47.8 °F 46.9 °F 30.2 in Calm     97 % 0 in
07:17 47.7 °F 46.9 °F 30.2 in Calm     97 % 0 in
07:22 47.3 °F 46.6 °F 30.2 in Calm     97 % 0 in
07:32 47.1 °F 46.4 °F 30.2 in Calm     97 % 0 in
17:37 70.5 °F 55 °F 30.1 in SSW 4 mph 12 mph 58 % 0 in
17:42 70.5 °F 55.6 °F 30.1 in SSW 3 mph 8 mph 59 % 0 in
17:47 70.3 °F 55.8 °F 30.1 in SW 4 mph 11 mph 60 % 0 in
17:52 70.2 °F 54.7 °F 30.1 in SSW 4 mph 11 mph 58 % 0 in
17:57 70.2 °F 55.6 °F 30.1 in South 5 mph 10 mph 60 % 0 in
18:02 70.2 °F 55.2 °F 30.1 in SW 2 mph 10 mph 59 % 0 in
18:07 70 °F 55.4 °F 30.1 in WSW 2 mph 10 mph 60 % 0 in
18:12 70 °F 55.4 °F 30.1 in SSW 2 mph 7 mph 60 % 0 in
18:17 69.6 °F 55.6 °F 30.1 in SSW 2 mph 7 mph 61 % 0 in
18:22 69.6 °F 55.9 °F 30.1 in SSW 1 mph 7 mph 62 % 0 in
18:27 69.4 °F 56.3 °F 30.1 in SW 1 mph 4 mph 63 % 0 in
18:32 69.3 °F 56.5 °F 30.1 in SW 1 mph 4 mph 64 % 0 in
18:42 67.6 °F 55.9 °F 30.1 in SW 1 mph 3 mph 66 % 0 in
18:52 66.9 °F 55.6 °F 30.1 in SSW 1 mph 2 mph 67 % 0 in
18:57 66.6 °F 55.6 °F 30.1 in Calm   2 mph 68 % 0 in
19:02 66 °F 55.6 °F 30.1 in Calm   2 mph 69 % 0 in
19:07 65.5 °F 55.4 °F 30.1 in Calm   1 mph 70 % 0 in
19:12 64.8 °F 55.6 °F 30.1 in Calm   1 mph 72 % 0 in
19:17 64.2 °F 55 °F 30.1 in Calm   2 mph 72 % 0 in
19:22 63.9 °F 55 °F 30.1 in Calm   2 mph 73 % 0 in
19:27 63.3 °F 54.9 °F 30.1 in SSW 1 mph 2 mph 74 % 0 in
19:32 62.8 °F 54.7 °F 30.1 in SW 2 mph 2 mph 75 % 0 in
19:37 62.4 °F 54.3 °F 30.1 in SW 2 mph 2 mph 75 % 0 in
19:42 62.8 °F 54.7 °F 30.1 in Calm   3 mph 75 % 0 in
19:47 62.8 °F 54.7 °F 30.1 in SW 1 mph 3 mph 75 % 0 in
19:57 63 °F 54.5 °F 30.1 in SSW 1 mph 3 mph 74 % 0 in
20:02 62.8 °F 54.3 °F 30.1 in Calm   2 mph 74 % 0 in
20:12 62.2 °F 54.5 °F 30.1 in SW 1 mph 2 mph 76 % 0 in
20:22 61.5 °F 54 °F 30.1 in Calm   2 mph 76 % 0 in
20:27 61.2 °F 54 °F 30.1 in Calm   2 mph 77 % 0 in
20:37 60.4 °F 54 °F 30.1 in SW 1 mph 1 mph 79 % 0 in
20:42 60.4 °F 54.3 °F 30.1 in West 1 mph 2 mph 80 % 0 in
20:47 60.1 °F 54.3 °F 30.1 in West 1 mph 2 mph 81 % 0 in
20:52 60.1 °F 54.3 °F 30.1 in Calm   2 mph 81 % 0 in
20:57 60.3 °F 54.3 °F 30.1 in WSW 2 mph 3 mph 81 % 0 in
21:02 60.4 °F 54.5 °F 30.1 in SSW 2 mph 3 mph 81 % 0 in
21:07 60.6 °F 54.7 °F 30.1 in SW 2 mph 4 mph 81 % 0 in
21:17 60.8 °F 54.7 °F 30.1 in SW 1 mph 4 mph 80 % 0 in
21:27 60.4 °F 54.5 °F 30.1 in Calm   3 mph 81 % 0 in
21:32 59.7 °F 54 °F 30.1 in NE 1 mph 3 mph 81 % 0 in
21:42 58.3 °F 53.4 °F 30.1 in Calm   1 mph 84 % 0 in
21:47 58.3 °F 53.4 °F 30.1 in Calm   1 mph 84 % 0 in
21:52 57.7 °F 53.2 °F 30.1 in Calm   1 mph 85 % 0 in
21:57 57.6 °F 53.1 °F 30.1 in Calm   1 mph 85 % 0 in
22:02 57.2 °F 53.1 °F 30.1 in Calm   1 mph 86 % 0 in
22:12 56.7 °F 52.5 °F 30.1 in South 1 mph 2 mph 86 % 0 in
22:17 56.1 °F 52.3 °F 30.1 in South 1 mph 2 mph 87 % 0 in
22:22 55.8 °F 52 °F 30.1 in South 1 mph 2 mph 87 % 0 in
22:27 55.4 °F 52 °F 30.1 in Calm   2 mph 88 % 0 in
22:32 55.2 °F 51.8 °F 30.1 in Calm   2 mph 88 % 0 in
22:37 55.2 °F 52 °F 30.1 in Calm   2 mph 89 % 0 in
22:42 55.2 °F 52 °F 30.1 in Calm   1 mph 89 % 0 in
22:47 55.2 °F 52 °F 30.1 in Calm   1 mph 89 % 0 in
22:52 55.2 °F 52.3 °F 30.1 in Calm   1 mph 90 % 0 in
22:57 55.4 °F 52.5 °F 30.1 in SSW 1 mph 2 mph 90 % 0 in
23:02 55.4 °F 52.2 °F 30.1 in South 1 mph 2 mph 89 % 0 in
23:07 56.1 °F 52.7 °F 30.1 in SSW 3 mph 6 mph 88 % 0 in
23:12 57 °F 52.9 °F 30.1 in SSW 3 mph 8 mph 86 % 0 in
23:17 57.7 °F 52.7 °F 30.1 in WSW 7 mph 8 mph 83 % 0 in
23:22 58.8 °F 53.4 °F 30.1 in SSW 3 mph 8 mph 82 % 0 in
23:27 59.9 °F 53.8 °F 30.2 in WSW 4 mph 11 mph 80 % 0 in
23:32 60.3 °F 53.8 °F 30.2 in WSW 3 mph 11 mph 79 % 0 in
23:42 60.6 °F 53.8 °F 30.2 in WSW 4 mph 11 mph 78 % 0 in
23:47 60.6 °F 54.1 °F 30.2 in WSW 5 mph 14 mph 79 % 0 in
23:52 60.6 °F 54.1 °F 30.2 in WSW 6 mph 14 mph 79 % 0 in
23:57 60.4 °F 54.3 °F 30.2 in WSW 12 mph 14 mph 80 % 0 in
Meteo18
Compliments of Weather Underground - 4 mb

Script developed by  Jim McMurry - jmcmurry@mwt.net Adapted for the template by  Wim van der Kuil - Leuven-Template.eu

You find our weather info also at:

European Weather Network

Weather Underground

Equipment we use:

Weather-station
Davis Vue

Weather-program
Meteohub

Weather-server
Raspberry PI 2 B+

Provider
1 and 1

Davis Vue

Meteohub

Raspberry PI 2 B+

1 and 1